Terminal Aerodrome Forecast
Issued by NWS El Paso, TX

Home | Current Version | Previous Version | Text Only | Print | Product List | Glossary On
Versions: 1 2 3 4 5 6 7 8 9 10 11 12 13
000
FTUS44 KEPZ 301100 RRA
TAFELP
TAF
KELP 301142Z 3012/3112 VRB05KT P6SM SKC
     FM301900 09008KT P6SM SKC
     FM310500 08013G20KT P6SM SCT250=

USA.gov is the U.S. government's official web portal to all federal, state and local government web resources and services.